• Join FlightAware (Why Join?)
  • Login
  • US Flag 
12:26AM EDT


 

Airport Tracker/Info


-or-


 

Live Flight TrackerFlight Track Log ✈ EJA922 ✈ 09-Jan-2014 ✈ KLAS - KSJC

Flight Track Log - Related Links

Times and Time Zones

All times are in EST time to prevent confusion due to time zone crossing. See the EJA922 flight status page for this flight to view local times or setup timezone preferences in your user account.

Time Position Orientation Groundspeed Altitude Reporting Facility
EST Latitude Longitude Course Direction KTS MPH feet Rate Location/Type
11:30AM 36.1072 -115.1525 281° West 182 209 3,400  Level Los Angeles Center
11:31AM 36.1183 -115.2236 281° West 232 267 7,700 2,460 Climbing Los Angeles Center
11:32AM 36.0933 -115.2897 245° Southwest 255 293 9,200 1,980 Climbing Los Angeles Center
11:33AM 36.0211 -115.3306 205° Southwest 268 308 11,700 2,580 Climbing Los Angeles Center
11:34AM 35.9433 -115.3814 208° Southwest 301 346 14,600 2,700 Climbing Los Angeles Center
11:35AM 35.8722 -115.4489 218° Southwest 328 377 17,400 2,160 Climbing Los Angeles Center
11:36AM 35.8708 -115.5600 269° West 327 376 19,100 2,100 Climbing Los Angeles Center
11:37AM 35.9244 -115.6744 300° West 362 417 21,800 2,400 Climbing Los Angeles Center
11:38AM 35.9853 -115.7772 306° West 367 422 24,100 2,160 Climbing Los Angeles Center
11:39AM 36.0519 -115.8856 307° West 381 438 26,300 1,920 Climbing Los Angeles Center
11:41AM 36.1167 -115.9942 306° West 390 449 28,100 1,500 Climbing Los Angeles Center
11:42AM 36.1808 -116.1003 307° West 386 444 29,500 1,440 Climbing Los Angeles Center
11:43AM 36.2458 -116.2086 307° West 390 449 31,100 2,040 Climbing Los Angeles Center
11:44AM 36.3183 -116.3292 307° West 382 440 33,800 1,380 Climbing Los Angeles Center
11:45AM 36.3811 -116.4356 306° West 383 441 34,000 60 Climbing Los Angeles Center
11:46AM 36.4525 -116.5539 307° West 425 489 34,000  Level Los Angeles Center
11:47AM 36.5225 -116.6747 306° West 432 497 34,000  Level Los Angeles Center
11:48AM 36.5797 -116.8150 297° West 433 498 34,000  Level Los Angeles Center
11:49AM 36.6125 -116.9808 284° West 443 510 34,000  Level Los Angeles Center
11:50AM 36.6408 -117.1286 283° West 442 509 34,000  Level Los Angeles Center
11:51AM 36.6689 -117.2783 283° West 444 511 34,000  Level Los Angeles Center
11:52AM 36.6981 -117.4297 284° West 448 516 34,000  Level Los Angeles Center
11:53AM 36.7261 -117.5806 283° West 450 518 34,000  Level Los Angeles Center
11:54AM 36.7489 -117.6997 283° West 447 514 34,000  Level Los Angeles Center
11:55AM 36.7853 -117.8997 283° West 444 511 34,000  Level Los Angeles Center
11:56AM 36.8133 -118.0528 283° West 450 518 34,000  Level Los Angeles Center
11:57AM 36.8444 -118.2147 284° West 469 540 34,000  Level Los Angeles Center
11:58AM 36.8786 -118.4019 283° West 462 532 34,000  Level Los Angeles Center
11:59AM 36.9058 -118.5589 282° West 462 532 34,000  Level Los Angeles Center
12:00PM 36.9267 -118.6747 283° West 462 532 34,000  Level Oakland Center
12:01PM 36.9550 -118.8294 283° West 460 529 34,000  Level Oakland Center
12:02PM 36.9817 -118.9856 282° West 460 529 34,000  Level Oakland Center
12:03PM 37.0086 -119.1428 282° West 464 534 34,000 -960 Level Oakland Center
12:04PM 37.0358 -119.2983 282° West 462 532 32,100 -2,760 Descending Oakland Center
12:05PM 37.0617 -119.4503 282° West 451 519 28,400 -4,020 Descending Oakland Center
12:06PM 37.0919 -119.6308 282° West 446 513 23,900 -3,900 Descending Oakland Center
12:07PM 37.1153 -119.7719 282° West 421 484 20,500 -1,920 Descending Oakland Center
12:08PM 37.1358 -119.8944 282° West 416 479 20,000 -300 Descending Oakland Center
12:09PM 37.1650 -120.0692 282° West 427 491 20,000  Level Oakland Center
12:10PM 37.1897 -120.2181 282° West 432 497 20,000  Level Oakland Center
12:11PM 37.2131 -120.3650 281° West 431 496 20,000 -1,020 Level Oakland Center
12:12PM 37.1833 -120.5333 258° West 508 585 17,900 -1,980 Descending Northern Cal TRACON
12:13PM 37.1667 -120.6667 261° West 409 471 15,900 -1,500 Descending Northern Cal TRACON
12:14PM 37.1333 -120.8167 254° West 410 472 15,000 -480 Descending Northern Cal TRACON
12:15PM 37.1000 -120.9667 254° West 412 474 15,000 -360 Level Northern Cal TRACON
12:16PM 37.0733 -121.0756 253° West 412 474 14,300 -1,380 Descending Oakland Center
12:17PM 37.0453 -121.2119 256° West 401 461 12,300 -1,920 Descending Oakland Center
12:18PM 37.0431 -121.3336 269° West 357 411 10,400 -2,100 Descending Oakland Center
12:19PM 37.0442 -121.4319 271° West 299 344 8,100 -2,520 Descending Oakland Center
12:20PM 37.0458 -121.5192 271° West 258 297 5,300 -1,560 Descending Oakland Center
12:21PM 37.0819 -121.6006 299° West 227 261 5,000 -180 Descending Oakland Center
12:22PM 37.1183 -121.6522 311° West 206 237 5,000  Level Oakland Center
12:23PM 37.1500 -121.6833 322° Northwest 201 231 5,000 -240 Level Northern Cal TRACON
12:24PM 37.1833 -121.7333 310° West 184 212 4,600 -1,020 Descending Northern Cal TRACON
12:25PM 37.2167 -121.7833 310° West 196 226 3,000 -900 Descending Northern Cal TRACON
12:26PM 37.2667 -121.8167 332° Northwest 196 226 2,800 -660 Descending Northern Cal TRACON
12:27PM 37.3000 -121.8500 322° Northwest 154 177 1,800 -960 Descending Northern Cal TRACON
12:28PM 37.3042 -121.8692 285° West 167 192 1,500 -720 Descending Oakland Center
12:29PM 37.3333 -121.9014 319° Northwest 149 171 700 9,060 Descending Oakland Center
12:30PM 37.3625 -121.9325 320° Northwest 143 165 20,000 18,960 Climbing Oakland Center
12:32PM 37.3627 -121.9291 North  Level Estimated